sensor_id;sensor_type;location;lat;lon;timestamp;pressure;altitude;pressure_sealevel;temperature;humidity
73594;BME280;62064;53.406;23.500;2022-08-03T00:00:10;99996.72;;;22.37;63.54
73594;BME280;62064;53.406;23.500;2022-08-03T00:03:01;99996.72;;;22.37;63.48
73594;BME280;62064;53.406;23.500;2022-08-03T00:05:28;100001.38;;;22.36;63.53
73594;BME280;62064;53.406;23.500;2022-08-03T00:07:54;99999.16;;;22.33;63.31
73594;BME280;62064;53.406;23.500;2022-08-03T00:10:20;99997.25;;;22.34;63.21
73594;BME280;62064;53.406;23.500;2022-08-03T00:12:46;100000.53;;;22.36;63.32
73594;BME280;62064;53.406;23.500;2022-08-03T00:15:12;100008.75;;;22.36;63.71
73594;BME280;62064;53.406;23.500;2022-08-03T00:17:38;100002.69;;;22.34;63.45
73594;BME280;62064;53.406;23.500;2022-08-03T00:20:05;100005.44;;;22.34;63.10
73594;BME280;62064;53.406;23.500;2022-08-03T00:22:34;100009.56;;;22.36;63.74
73594;BME280;62064;53.406;23.500;2022-08-03T00:25:00;100001.59;;;22.30;63.53
73594;BME280;62064;53.406;23.500;2022-08-03T00:27:26;100003.28;;;22.36;63.63
73594;BME280;62064;53.406;23.500;2022-08-03T00:29:53;100014.19;;;22.36;63.29
73594;BME280;62064;53.406;23.500;2022-08-03T00:32:19;100014.19;;;22.36;63.73
73594;BME280;62064;53.406;23.500;2022-08-03T00:34:48;100008.16;;;22.34;64.02
73594;BME280;62064;53.406;23.500;2022-08-03T00:37:14;100013.38;;;22.35;64.09
73594;BME280;62064;53.406;23.500;2022-08-03T00:39:41;100015.84;;;22.37;62.94
73594;BME280;62064;53.406;23.500;2022-08-03T00:42:10;100014.47;;;22.34;63.15
73594;BME280;62064;53.406;23.500;2022-08-03T00:44:40;100009.81;;;22.35;63.69
73594;BME280;62064;53.406;23.500;2022-08-03T00:47:07;100007.91;;;22.35;64.02
73594;BME280;62064;53.406;23.500;2022-08-03T00:49:39;100005.72;;;22.32;63.92
73594;BME280;62064;53.406;23.500;2022-08-03T00:52:07;100002.69;;;22.29;63.75
73594;BME280;62064;53.406;23.500;2022-08-03T00:54:36;100007.09;;;22.35;63.91
73594;BME280;62064;53.406;23.500;2022-08-03T00:57:03;99999.44;;;22.32;64.02
73594;BME280;62064;53.406;23.500;2022-08-03T00:59:30;99996.13;;;22.30;63.64
73594;BME280;62064;53.406;23.500;2022-08-03T01:01:56;100010.06;;;22.33;63.93
73594;BME280;62064;53.406;23.500;2022-08-03T01:04:23;100004.31;;;22.30;63.43
73594;BME280;62064;53.406;23.500;2022-08-03T01:06:53;100002.16;;;22.32;63.92
73594;BME280;62064;53.406;23.500;2022-08-03T01:15:02;99998.88;;;22.30;63.88
73594;BME280;62064;53.406;23.500;2022-08-03T01:17:43;99996.69;;;22.32;63.89
73594;BME280;62064;53.406;23.500;2022-08-03T01:20:13;99991.78;;;22.29;64.23
73594;BME280;62064;53.406;23.500;2022-08-03T01:31:10;99999.41;;;22.27;63.85
73594;BME280;62064;53.406;23.500;2022-08-03T01:33:41;100004.03;;;22.26;63.53
73594;BME280;62064;53.406;23.500;2022-08-03T01:36:16;100007.06;;;22.25;63.76
73594;BME280;62064;53.406;23.500;2022-08-03T01:38:51;100004.03;;;22.21;63.68
73594;BME280;62064;53.406;23.500;2022-08-03T01:41:29;100005.94;;;22.21;64.08
73594;BME280;62064;53.406;23.500;2022-08-03T01:43:57;100002.94;;;22.22;63.97
73594;BME280;62064;53.406;23.500;2022-08-03T01:46:25;100002.63;;;22.19;64.22
73594;BME280;62064;53.406;23.500;2022-08-03T01:48:51;100010.00;;;22.18;63.85
73594;BME280;62064;53.406;23.500;2022-08-03T01:51:21;100011.91;;;22.18;64.34
73594;BME280;62064;53.406;23.500;2022-08-03T01:53:49;100002.09;;;22.17;64.01
73594;BME280;62064;53.406;23.500;2022-08-03T01:56:17;100009.47;;;22.16;64.24
73594;BME280;62064;53.406;23.500;2022-08-03T01:58:47;100005.34;;;22.14;64.23
73594;BME280;62064;53.406;23.500;2022-08-03T02:01:15;100003.72;;;22.13;64.19
73594;BME280;62064;53.406;23.500;2022-08-03T02:03:42;100020.38;;;22.16;64.02
73594;BME280;62064;53.406;23.500;2022-08-03T02:06:11;100003.44;;;22.14;64.10
73594;BME280;62064;53.406;23.500;2022-08-03T02:08:40;100013.53;;;22.14;64.41
73594;BME280;62064;53.406;23.500;2022-08-03T02:11:07;100000.13;;;22.07;64.61
73594;BME280;62064;53.406;23.500;2022-08-03T02:13:34;100000.41;;;22.11;64.18
73594;BME280;62064;53.406;23.500;2022-08-03T02:16:04;100007.53;;;22.12;64.16
73594;BME280;62064;53.406;23.500;2022-08-03T02:18:31;100009.69;;;22.10;64.11
73594;BME280;62064;53.406;23.500;2022-08-03T02:21:01;99998.47;;;22.06;64.38
73594;BME280;62064;53.406;23.500;2022-08-03T02:23:29;99995.50;;;22.08;64.47
73594;BME280;62064;53.406;23.500;2022-08-03T02:25:57;100002.03;;;22.07;64.32
73594;BME280;62064;53.406;23.500;2022-08-03T02:28:40;99991.69;;;22.09;64.44
73594;BME280;62064;53.406;23.500;2022-08-03T02:31:15;99989.47;;;22.06;64.22
73594;BME280;62064;53.406;23.500;2022-08-03T02:33:42;100000.13;;;22.07;64.31
73594;BME280;62064;53.406;23.500;2022-08-03T02:36:10;99992.19;;;22.06;64.70
73594;BME280;62064;53.406;23.500;2022-08-03T02:38:42;99996.84;;;22.05;64.76
73594;BME280;62064;53.406;23.500;2022-08-03T02:41:19;99985.63;;;22.01;64.65
73594;BME280;62064;53.406;23.500;2022-08-03T02:43:51;99998.19;;;22.02;64.29
73594;BME280;62064;53.406;23.500;2022-08-03T02:46:22;100003.66;;;22.02;64.76
73594;BME280;62064;53.406;23.500;2022-08-03T02:48:51;100001.19;;;22.01;64.14
73594;BME280;62064;53.406;23.500;2022-08-03T02:51:19;100005.84;;;22.00;64.75
73594;BME280;62064;53.406;23.500;2022-08-03T02:53:50;99991.06;;;22.01;64.64
73594;BME280;62064;53.406;23.500;2022-08-03T02:56:18;99993.25;;;21.99;64.12
73594;BME280;62064;53.406;23.500;2022-08-03T02:58:46;99982.34;;;21.99;64.29
73594;BME280;62064;53.406;23.500;2022-08-03T03:01:21;99985.31;;;21.98;64.48
73594;BME280;62064;53.406;23.500;2022-08-03T03:03:50;99978.25;;;21.97;64.50
73594;BME280;62064;53.406;23.500;2022-08-03T03:06:17;99986.69;;;21.95;64.36
73594;BME280;62064;53.406;23.500;2022-08-03T03:08:45;99994.88;;;21.95;64.41
73594;BME280;62064;53.406;23.500;2022-08-03T03:11:13;99999.25;;;21.96;64.76
73594;BME280;62064;53.406;23.500;2022-08-03T03:13:42;99992.16;;;21.95;64.52
73594;BME280;62064;53.406;23.500;2022-08-03T03:16:11;99992.97;;;21.96;64.42
73594;BME280;62064;53.406;23.500;2022-08-03T03:18:39;99993.50;;;21.93;64.38
73594;BME280;62064;53.406;23.500;2022-08-03T03:21:07;99988.88;;;21.93;64.32
73594;BME280;62064;53.406;23.500;2022-08-03T03:23:36;99995.97;;;21.94;64.65
73594;BME280;62064;53.406;23.500;2022-08-03T03:26:04;99997.88;;;21.94;64.36
73594;BME280;62064;53.406;23.500;2022-08-03T03:28:32;99987.78;;;21.94;64.27
73594;BME280;62064;53.406;23.500;2022-08-03T03:30:59;99994.88;;;21.95;64.94
73594;BME280;62064;53.406;23.500;2022-08-03T03:33:29;99999.25;;;21.96;65.02
73594;BME280;62064;53.406;23.500;2022-08-03T03:35:57;99997.63;;;21.95;64.43
73594;BME280;62064;53.406;23.500;2022-08-03T03:38:27;100000.09;;;21.97;64.87
73594;BME280;62064;53.406;23.500;2022-08-03T03:40:53;99997.91;;;21.99;64.70
73594;BME280;62064;53.406;23.500;2022-08-03T03:43:22;99997.06;;;21.98;64.78
73594;BME280;62064;53.406;23.500;2022-08-03T03:45:49;99998.19;;;21.97;64.56
73594;BME280;62064;53.406;23.500;2022-08-03T03:48:16;100003.09;;;22.00;64.79
73594;BME280;62064;53.406;23.500;2022-08-03T03:50:43;100001.44;;;21.99;64.39
73594;BME280;62064;53.406;23.500;2022-08-03T03:53:12;100005.84;;;22.00;64.47
73594;BME280;62064;53.406;23.500;2022-08-03T03:55:39;100009.09;;;22.02;64.25
73594;BME280;62064;53.406;23.500;2022-08-03T03:58:05;100002.00;;;22.01;64.11
73594;BME280;62064;53.406;23.500;2022-08-03T04:00:33;100014.84;;;22.01;64.58
73594;BME280;62064;53.406;23.500;2022-08-03T04:02:59;100011.84;;;22.02;64.40
73594;BME280;62064;53.406;23.500;2022-08-03T04:05:26;100012.91;;;22.01;64.44
73594;BME280;62064;53.406;23.500;2022-08-03T04:08:14;100021.94;;;22.02;64.47
73594;BME280;62064;53.406;23.500;2022-08-03T04:11:21;100011.59;;;22.04;64.20
73594;BME280;62064;53.406;23.500;2022-08-03T04:13:51;100012.13;;;22.01;64.41
73594;BME280;62064;53.406;23.500;2022-08-03T04:16:25;100016.75;;;22.06;63.82
73594;BME280;62064;53.406;23.500;2022-08-03T04:18:59;100009.94;;;22.03;64.53
73594;BME280;62064;53.406;23.500;2022-08-03T04:21:31;100021.16;;;22.07;64.39
73594;BME280;62064;53.406;23.500;2022-08-03T04:24:01;100027.19;;;22.09;64.35
73594;BME280;62064;53.406;23.500;2022-08-03T04:26:33;100027.19;;;22.09;64.04
73594;BME280;62064;53.406;23.500;2022-08-03T04:29:01;100025.28;;;22.09;64.51
73594;BME280;62064;53.406;23.500;2022-08-03T04:31:29;100028.53;;;22.11;64.51
73594;BME280;62064;53.406;23.500;2022-08-03T04:33:57;100032.34;;;22.10;64.25
73594;BME280;62064;53.406;23.500;2022-08-03T04:36:25;100033.75;;;22.13;63.82
73594;BME280;62064;53.406;23.500;2022-08-03T04:41:56;100037.84;;;22.15;64.11
73594;BME280;62064;53.406;23.500;2022-08-03T04:44:26;100028.59;;;22.16;63.95
73594;BME280;62064;53.406;23.500;2022-08-03T04:46:55;100033.75;;;22.18;64.03
73594;BME280;62064;53.406;23.500;2022-08-03T04:49:22;100042.78;;;22.18;64.18
73594;BME280;62064;53.406;23.500;2022-08-03T04:51:49;100025.03;;;22.16;63.24
73594;BME280;62064;53.406;23.500;2022-08-03T04:54:15;100030.22;;;22.17;63.72
73594;BME280;62064;53.406;23.500;2022-08-03T04:56:50;100032.97;;;22.22;64.27
73594;BME280;62064;53.406;23.500;2022-08-03T04:59:16;100037.34;;;22.23;63.79
73594;BME280;62064;53.406;23.500;2022-08-03T05:01:42;100045.84;;;22.27;64.07
73594;BME280;62064;53.406;23.500;2022-08-03T05:04:09;100040.94;;;22.29;63.85
73594;BME280;62064;53.406;23.500;2022-08-03T05:06:35;100045.88;;;22.32;63.44
73594;BME280;62064;53.406;23.500;2022-08-03T05:09:02;100049.72;;;22.36;63.43
73594;BME280;62064;53.406;23.500;2022-08-03T05:11:30;100042.34;;;22.36;63.33
73594;BME280;62064;53.406;23.500;2022-08-03T05:13:56;100042.63;;;22.40;63.57
73594;BME280;62064;53.406;23.500;2022-08-03T05:16:24;100045.91;;;22.42;63.26
73594;BME280;62064;53.406;23.500;2022-08-03T05:18:50;100039.91;;;22.40;63.61
73594;BME280;62064;53.406;23.500;2022-08-03T05:21:16;100047.28;;;22.44;63.65
73594;BME280;62064;53.406;23.500;2022-08-03T05:23:43;100047.00;;;22.46;63.52
73594;BME280;62064;53.406;23.500;2022-08-03T05:26:10;100047.00;;;22.46;63.73
73594;BME280;62064;53.406;23.500;2022-08-03T05:28:41;100045.94;;;22.47;63.79
73594;BME280;62064;53.406;23.500;2022-08-03T05:31:07;100048.66;;;22.47;63.51
73594;BME280;62064;53.406;23.500;2022-08-03T05:33:34;100047.59;;;22.48;63.39
73594;BME280;62064;53.406;23.500;2022-08-03T05:36:00;100044.84;;;22.48;63.25
73594;BME280;62064;53.406;23.500;2022-08-03T05:38:26;100047.88;;;22.52;63.37
73594;BME280;62064;53.406;23.500;2022-08-03T05:40:54;100056.91;;;22.52;63.31
73594;BME280;62064;53.406;23.500;2022-08-03T05:43:21;100054.16;;;22.52;63.48
73594;BME280;62064;53.406;23.500;2022-08-03T05:45:47;100054.16;;;22.52;63.47
73594;BME280;62064;53.406;23.500;2022-08-03T05:48:15;100049.22;;;22.54;63.44
73594;BME280;62064;53.406;23.500;2022-08-03T05:50:41;100050.06;;;22.55;63.04
73594;BME280;62064;53.406;23.500;2022-08-03T05:53:07;100050.63;;;22.57;63.15
73594;BME280;62064;53.406;23.500;2022-08-03T05:55:34;100055.56;;;22.60;63.32
73594;BME280;62064;53.406;23.500;2022-08-03T05:58:00;100065.94;;;22.63;63.40
73594;BME280;62064;53.406;23.500;2022-08-03T06:00:28;100070.63;;;22.67;63.21
73594;BME280;62064;53.406;23.500;2022-08-03T06:02:55;100067.09;;;22.72;63.42
73594;BME280;62064;53.406;23.500;2022-08-03T06:05:21;100060.56;;;22.73;63.59
73594;BME280;62064;53.406;23.500;2022-08-03T06:07:48;100065.75;;;22.74;63.13
73594;BME280;62064;53.406;23.500;2022-08-03T06:10:16;100067.66;;;22.79;63.27
73594;BME280;62064;53.406;23.500;2022-08-03T06:12:44;100061.94;;;22.80;63.06
73594;BME280;62064;53.406;23.500;2022-08-03T06:15:14;100060.31;;;22.79;62.33
73594;BME280;62064;53.406;23.500;2022-08-03T06:17:49;100069.59;;;22.83;61.99
73594;BME280;62064;53.406;23.500;2022-08-03T06:20:18;100067.97;;;22.82;62.48
73594;BME280;62064;53.406;23.500;2022-08-03T06:22:46;100066.31;;;22.81;62.22
73594;BME280;62064;53.406;23.500;2022-08-03T06:25:17;100070.16;;;22.80;62.32
73594;BME280;62064;53.406;23.500;2022-08-03T06:27:44;100076.69;;;22.79;61.83
73594;BME280;62064;53.406;23.500;2022-08-03T06:30:11;100077.78;;;22.78;62.31
73594;BME280;62064;53.406;23.500;2022-08-03T06:32:40;100082.44;;;22.78;62.19
73594;BME280;62064;53.406;23.500;2022-08-03T06:35:08;100081.09;;;22.80;62.23
73594;BME280;62064;53.406;23.500;2022-08-03T06:37:49;100070.41;;;22.79;62.01
73594;BME280;62064;53.406;23.500;2022-08-03T06:40:18;100081.38;;;22.84;61.57
73594;BME280;62064;53.406;23.500;2022-08-03T06:42:46;100081.91;;;22.81;61.85
73594;BME280;62064;53.406;23.500;2022-08-03T06:45:12;100072.63;;;22.87;61.99
73594;BME280;62064;53.406;23.500;2022-08-03T06:47:40;100076.47;;;22.91;61.86
73594;BME280;62064;53.406;23.500;2022-08-03T06:50:07;100084.94;;;22.94;62.60
73594;BME280;62064;53.406;23.500;2022-08-03T06:52:36;100077.28;;;22.91;62.25
73594;BME280;62064;53.406;23.500;2022-08-03T06:55:13;100079.50;;;23.00;62.65
73594;BME280;62064;53.406;23.500;2022-08-03T06:57:40;100083.88;;;23.01;62.69
73594;BME280;62064;53.406;23.500;2022-08-03T07:00:06;100086.34;;;23.02;62.92
73594;BME280;62064;53.406;23.500;2022-08-03T07:02:34;100085.00;;;23.05;62.32
73594;BME280;62064;53.406;23.500;2022-08-03T07:05:03;100080.88;;;23.07;62.38
73594;BME280;62064;53.406;23.500;2022-08-03T07:07:30;100084.16;;;23.09;62.73
73594;BME280;62064;53.406;23.500;2022-08-03T07:09:57;100082.25;;;23.10;62.85
73594;BME280;62064;53.406;23.500;2022-08-03T07:12:24;100087.19;;;23.13;62.73
73594;BME280;62064;53.406;23.500;2022-08-03T07:14:50;100075.69;;;23.11;62.95
73594;BME280;62064;53.406;23.500;2022-08-03T07:17:16;100084.75;;;23.16;62.85
73594;BME280;62064;53.406;23.500;2022-08-03T07:19:43;100079.78;;;23.13;62.71
73594;BME280;62064;53.406;23.500;2022-08-03T07:22:09;100092.94;;;23.21;63.41
73594;BME280;62064;53.406;23.500;2022-08-03T07:24:37;100090.75;;;23.23;63.00
73594;BME280;62064;53.406;23.500;2022-08-03T07:27:04;100079.25;;;23.21;62.97
73594;BME280;62064;53.406;23.500;2022-08-03T07:29:33;100093.78;;;23.27;63.22
73594;BME280;62064;53.406;23.500;2022-08-03T07:31:59;100090.50;;;23.30;63.14
73594;BME280;62064;53.406;23.500;2022-08-03T07:34:26;100087.22;;;23.28;63.25
73594;BME280;62064;53.406;23.500;2022-08-03T07:36:52;100091.06;;;23.32;63.23
73594;BME280;62064;53.406;23.500;2022-08-03T07:39:18;100095.16;;;23.34;63.51
73594;BME280;62064;53.406;23.500;2022-08-03T07:41:45;100086.41;;;23.32;63.79
73594;BME280;62064;53.406;23.500;2022-08-03T07:44:12;100089.13;;;23.37;63.16
73594;BME280;62064;53.406;23.500;2022-08-03T07:46:38;100088.88;;;23.39;63.32
73594;BME280;62064;53.406;23.500;2022-08-03T07:49:04;100086.41;;;23.37;63.75
73594;BME280;62064;53.406;23.500;2022-08-03T07:51:34;100095.47;;;23.43;63.07
73594;BME280;62064;53.406;23.500;2022-08-03T07:54:01;100090.00;;;23.43;63.31
73594;BME280;62064;53.406;23.500;2022-08-03T07:56:29;100097.94;;;23.45;63.35
73594;BME280;62064;53.406;23.500;2022-08-03T07:58:56;100094.38;;;23.44;62.95
73594;BME280;62064;53.406;23.500;2022-08-03T08:01:22;100099.56;;;23.46;63.47
73594;BME280;62064;53.406;23.500;2022-08-03T08:03:49;100091.09;;;23.47;63.32
73594;BME280;62064;53.406;23.500;2022-08-03T08:06:16;100092.75;;;23.48;63.63
73594;BME280;62064;53.406;23.500;2022-08-03T08:08:43;100093.56;;;23.49;63.02
73594;BME280;62064;53.406;23.500;2022-08-03T08:11:09;100089.72;;;23.50;63.32
73594;BME280;62064;53.406;23.500;2022-08-03T08:13:36;100096.03;;;23.50;62.80
73594;BME280;62064;53.406;23.500;2022-08-03T08:16:04;100101.50;;;23.55;63.21
73594;BME280;62064;53.406;23.500;2022-08-03T08:18:31;100088.09;;;23.54;62.95
73594;BME280;62064;53.406;23.500;2022-08-03T08:20:57;100099.88;;;23.59;63.01
73594;BME280;62064;53.406;23.500;2022-08-03T08:23:24;100100.41;;;23.61;63.50
73594;BME280;62064;53.406;23.500;2022-08-03T08:25:51;100094.41;;;23.64;63.40
73594;BME280;62064;53.406;23.500;2022-08-03T08:28:22;100095.50;;;23.63;62.95
73594;BME280;62064;53.406;23.500;2022-08-03T08:30:48;100099.88;;;23.64;63.07
73594;BME280;62064;53.406;23.500;2022-08-03T08:33:16;100099.03;;;23.69;62.99
73594;BME280;62064;53.406;23.500;2022-08-03T08:35:42;100100.69;;;23.70;63.06
73594;BME280;62064;53.406;23.500;2022-08-03T08:38:10;100102.34;;;23.71;62.93
73594;BME280;62064;53.406;23.500;2022-08-03T08:40:38;100096.59;;;23.67;63.03
73594;BME280;62064;53.406;23.500;2022-08-03T08:43:06;100111.09;;;23.73;63.04
73594;BME280;62064;53.406;23.500;2022-08-03T08:45:46;100113.56;;;23.74;62.87
73594;BME280;62064;53.406;23.500;2022-08-03T08:48:14;100108.34;;;23.73;62.96
73594;BME280;62064;53.406;23.500;2022-08-03T08:50:42;100112.72;;;23.74;62.88
73594;BME280;62064;53.406;23.500;2022-08-03T08:53:11;100119.03;;;23.74;62.67
73594;BME280;62064;53.406;23.500;2022-08-03T08:55:38;100120.69;;;23.75;62.92
73594;BME280;62064;53.406;23.500;2022-08-03T08:58:05;100123.13;;;23.77;62.83
73594;BME280;62064;53.406;23.500;2022-08-03T09:00:35;100119.59;;;23.76;62.83
73594;BME280;62064;53.406;23.500;2022-08-03T09:03:03;100115.75;;;23.77;62.34
73594;BME280;62064;53.406;23.500;2022-08-03T09:05:29;100121.78;;;23.79;62.78
73594;BME280;62064;53.406;23.500;2022-08-03T09:07:57;100117.38;;;23.78;63.18
73594;BME280;62064;53.406;23.500;2022-08-03T09:10:24;100122.59;;;23.80;62.45
73594;BME280;62064;53.406;23.500;2022-08-03T09:12:51;100118.75;;;23.81;62.83
73594;BME280;62064;53.406;23.500;2022-08-03T09:15:27;100117.66;;;23.82;62.55
73594;BME280;62064;53.406;23.500;2022-08-03T09:18:00;100113.00;;;23.82;62.10
73594;BME280;62064;53.406;23.500;2022-08-03T09:20:30;100108.09;;;23.84;62.05
73594;BME280;62064;53.406;23.500;2022-08-03T09:23:01;100103.72;;;23.83;62.11
73594;BME280;62064;53.406;23.500;2022-08-03T09:25:29;100107.53;;;23.88;62.04
73594;BME280;62064;53.406;23.500;2022-08-03T09:28:08;100112.72;;;23.89;62.40
73594;BME280;62064;53.406;23.500;2022-08-03T09:30:42;100112.47;;;23.91;62.47
73594;BME280;62064;53.406;23.500;2022-08-03T09:33:10;100117.38;;;23.94;62.60
73594;BME280;62064;53.406;23.500;2022-08-03T09:35:55;100111.09;;;23.98;62.24
73594;BME280;62064;53.406;23.500;2022-08-03T09:38:22;100107.25;;;23.99;61.91
73594;BME280;62064;53.406;23.500;2022-08-03T09:40:51;100102.59;;;24.00;62.11
73594;BME280;62064;53.406;23.500;2022-08-03T09:43:19;100105.59;;;24.03;61.65
73594;BME280;62064;53.406;23.500;2022-08-03T09:45:46;100108.88;;;24.05;61.65
73594;BME280;62064;53.406;23.500;2022-08-03T09:48:23;100103.66;;;24.09;61.50
73594;BME280;62064;53.406;23.500;2022-08-03T09:53:18;100105.06;;;24.11;61.24
73594;BME280;62064;53.406;23.500;2022-08-03T09:56:00;100108.09;;;24.15;61.61
73594;BME280;62064;53.406;23.500;2022-08-03T09:58:28;100105.09;;;24.16;61.51
73594;BME280;62064;53.406;23.500;2022-08-03T10:01:00;100102.88;;;24.18;61.33
73594;BME280;62064;53.406;23.500;2022-08-03T10:03:37;100097.13;;;24.20;61.44
73594;BME280;62064;53.406;23.500;2022-08-03T10:06:18;100100.69;;;24.20;62.00
73594;BME280;62064;53.406;23.500;2022-08-03T10:08:45;100097.13;;;24.20;61.32
73594;BME280;62064;53.406;23.500;2022-08-03T10:11:28;100096.00;;;24.21;61.47
73594;BME280;62064;53.406;23.500;2022-08-03T10:13:55;100095.22;;;24.20;61.56
73594;BME280;62064;53.406;23.500;2022-08-03T10:16:23;100095.47;;;24.24;61.58
73594;BME280;62064;53.406;23.500;2022-08-03T10:18:49;100097.09;;;24.25;61.77
73594;BME280;62064;53.406;23.500;2022-08-03T10:21:16;100097.66;;;24.27;61.59
73594;BME280;62064;53.406;23.500;2022-08-03T10:23:45;100093.81;;;24.28;61.61
73594;BME280;62064;53.406;23.500;2022-08-03T10:26:15;100086.13;;;24.25;61.43
73594;BME280;62064;53.406;23.500;2022-08-03T10:28:48;100076.28;;;24.24;61.09
73594;BME280;62064;53.406;23.500;2022-08-03T10:31:17;100074.38;;;24.24;61.08
73594;BME280;62064;53.406;23.500;2022-08-03T10:33:48;100083.38;;;24.30;61.38
73594;BME280;62064;53.406;23.500;2022-08-03T10:36:15;100094.34;;;24.30;61.21
73594;BME280;62064;53.406;23.500;2022-08-03T10:38:49;100094.34;;;24.30;61.11
73594;BME280;62064;53.406;23.500;2022-08-03T10:41:20;100101.47;;;24.31;60.91
73594;BME280;62064;53.406;23.500;2022-08-03T10:43:52;100098.44;;;24.32;61.09
73594;BME280;62064;53.406;23.500;2022-08-03T10:46:20;100096.25;;;24.35;60.63
73594;BME280;62064;53.406;23.500;2022-08-03T10:48:47;100098.19;;;24.34;60.52
73594;BME280;62064;53.406;23.500;2022-08-03T10:51:15;100101.47;;;24.36;60.34
73594;BME280;62064;53.406;23.500;2022-08-03T10:53:42;100103.91;;;24.38;60.30
73594;BME280;62064;53.406;23.500;2022-08-03T10:59:18;100099.81;;;24.35;60.26
73594;BME280;62064;53.406;23.500;2022-08-03T11:01:55;100092.44;;;24.36;60.24
73594;BME280;62064;53.406;23.500;2022-08-03T11:04:23;100097.06;;;24.40;60.10
73594;BME280;62064;53.406;23.500;2022-08-03T11:07:19;100099.81;;;24.40;59.51
73594;BME280;62064;53.406;23.500;2022-08-03T11:09:53;100099.81;;;24.40;59.54
73594;BME280;62064;53.406;23.500;2022-08-03T11:14:50;100086.91;;;24.41;60.13
73594;BME280;62064;53.406;23.500;2022-08-03T11:17:17;100088.03;;;24.40;60.24
73594;BME280;62064;53.406;23.500;2022-08-03T11:19:46;100089.66;;;24.41;59.54
73594;BME280;62064;53.406;23.500;2022-08-03T11:22:13;100093.78;;;24.43;58.98
73594;BME280;62064;53.406;23.500;2022-08-03T11:30:10;100080.06;;;24.48;58.86
73594;BME280;62064;53.406;23.500;2022-08-03T11:32:49;100083.59;;;24.49;58.37
73594;BME280;62064;53.406;23.500;2022-08-03T11:35:28;100076.19;;;24.49;58.29
73594;BME280;62064;53.406;23.500;2022-08-03T11:43:03;100081.41;;;24.51;58.49
73594;BME280;62064;53.406;23.500;2022-08-03T11:45:31;100081.16;;;24.52;58.22
73594;BME280;62064;53.406;23.500;2022-08-03T11:47:59;100084.97;;;24.56;58.47
73594;BME280;62064;53.406;23.500;2022-08-03T11:50:35;100078.09;;;24.54;58.16
73594;BME280;62064;53.406;23.500;2022-08-03T11:53:04;100073.69;;;24.58;58.69
73594;BME280;62064;53.406;23.500;2022-08-03T11:55:31;100074.25;;;24.60;58.09
73594;BME280;62064;53.406;23.500;2022-08-03T11:57:58;100072.63;;;24.59;58.31
73594;BME280;62064;53.406;23.500;2022-08-03T12:00:26;100078.91;;;24.59;57.38
73594;BME280;62064;53.406;23.500;2022-08-03T12:03:14;100074.28;;;24.55;57.86
73594;BME280;62064;53.406;23.500;2022-08-03T12:08:10;100075.91;;;24.56;57.45
73594;BME280;62064;53.406;23.500;2022-08-03T12:10:37;100080.56;;;24.55;58.11
73594;BME280;62064;53.406;23.500;2022-08-03T12:13:06;100070.44;;;24.56;57.56
73594;BME280;62064;53.406;23.500;2022-08-03T12:15:35;100066.31;;;24.53;57.73
73594;BME280;62064;53.406;23.500;2022-08-03T12:18:07;100071.53;;;24.55;57.31
73594;BME280;62064;53.406;23.500;2022-08-03T12:20:37;100069.63;;;24.55;57.41
73594;BME280;62064;53.406;23.500;2022-08-03T12:23:04;100068.53;;;24.56;57.67
73594;BME280;62064;53.406;23.500;2022-08-03T12:25:32;100069.63;;;24.55;57.20
73594;BME280;62064;53.406;23.500;2022-08-03T12:28:11;100070.44;;;24.56;57.43
73594;BME280;62064;53.406;23.500;2022-08-03T12:30:38;100062.47;;;24.54;57.59
73594;BME280;62064;53.406;23.500;2022-08-03T12:33:34;100068.53;;;24.56;57.81
73594;BME280;62064;53.406;23.500;2022-08-03T12:36:18;100061.91;;;24.57;57.52
73594;BME280;62064;53.406;23.500;2022-08-03T12:38:57;100063.03;;;24.56;57.17
73594;BME280;62064;53.406;23.500;2022-08-03T12:41:28;100058.06;;;24.58;57.64
73594;BME280;62064;53.406;23.500;2022-08-03T12:43:54;100067.94;;;24.59;57.36
73594;BME280;62064;53.406;23.500;2022-08-03T12:46:20;100060.56;;;24.60;57.42
73594;BME280;62064;53.406;23.500;2022-08-03T12:49:06;100061.34;;;24.60;57.29
73594;BME280;62064;53.406;23.500;2022-08-03T12:54:27;100058.06;;;24.58;57.05
73594;BME280;62064;53.406;23.500;2022-08-03T12:57:01;100048.47;;;24.61;56.61
73594;BME280;62064;53.406;23.500;2022-08-03T13:02:15;100058.06;;;24.63;56.13
73594;BME280;62064;53.406;23.500;2022-08-03T13:04:43;100045.44;;;24.62;56.65
73594;BME280;62064;53.406;23.500;2022-08-03T13:07:14;100045.97;;;24.64;56.90
73594;BME280;62064;53.406;23.500;2022-08-03T13:09:53;100049.53;;;24.65;56.52
73594;BME280;62064;53.406;23.500;2022-08-03T13:12:26;100044.34;;;24.63;56.39
73594;BME280;62064;53.406;23.500;2022-08-03T13:14:58;100041.63;;;24.63;56.01
73594;BME280;62064;53.406;23.500;2022-08-03T13:17:26;100035.56;;;24.61;55.92
73594;BME280;62064;53.406;23.500;2022-08-03T13:19:53;100039.16;;;24.62;56.38
73594;BME280;62064;53.406;23.500;2022-08-03T13:22:22;100044.34;;;24.63;56.93
73594;BME280;62064;53.406;23.500;2022-08-03T13:24:52;100038.88;;;24.63;56.59
73594;BME280;62064;53.406;23.500;2022-08-03T13:27:21;100035.56;;;24.61;56.31
73594;BME280;62064;53.406;23.500;2022-08-03T13:29:49;100026.84;;;24.59;56.31
73594;BME280;62064;53.406;23.500;2022-08-03T13:32:15;100033.13;;;24.60;56.45
73594;BME280;62064;53.406;23.500;2022-08-03T13:34:42;100027.94;;;24.58;55.68